Time;durP1;ratioP1;P1;durP2;ratioP2;P2;SDS_P1;SDS_P2;PMS_P1;PMS_P2;Temp;Humidity;BMP_temperature;BMP_pressure;BME280_temperature;BME280_humidity;BME280_pressure;Samples;Min_cycle;Max_cycle;Signal;HPM_P1;HPM_P2
2023/10/02 00:02:40;;;;;;;4.90;3.70;;;;;;;-146.25;100.00;57403.91;4953286;29;20221;-86
2023/10/02 00:05:06;;;;;;;5.73;3.70;;;;;;;-146.25;100.00;57403.91;4958707;28;20782;-86
2023/10/02 00:07:35;;;;;;;5.00;3.87;;;;;;;-146.25;100.00;57403.91;4959260;28;20262;-87
2023/10/02 00:10:03;;;;;;;3.83;3.53;;;;;;;-146.25;100.00;57403.91;4951221;29;20208;-87
2023/10/02 00:12:31;;;;;;;4.90;3.93;;;;;;;-146.25;100.00;57403.91;4951947;29;20678;-87
2023/10/02 00:14:58;;;;;;;4.17;3.77;;;;;;;-146.25;100.00;57403.91;4952741;29;20243;-86
2023/10/02 00:17:26;;;;;;;4.50;3.83;;;;;;;-146.25;100.00;57403.91;4951336;29;20202;-85
2023/10/02 00:19:57;;;;;;;5.17;3.37;;;;;;;-146.25;100.00;57403.91;4951693;29;20308;-87
2023/10/02 00:22:41;;;;;;;3.13;2.90;;;;;;;-146.25;100.00;57403.91;4952141;29;20203;-85
2023/10/02 00:25:16;;;;;;;3.77;3.27;;;;;;;-146.25;100.00;57403.91;4951263;29;20270;-84
2023/10/02 00:27:46;;;;;;;4.90;3.73;;;;;;;-146.25;100.00;57403.91;4951394;28;20366;-86
2023/10/02 00:30:15;;;;;;;3.60;3.30;;;;;;;-146.25;100.00;57403.91;4951362;29;20207;-85
2023/10/02 00:32:45;;;;;;;3.87;3.57;;;;;;;-146.25;100.00;57403.91;4950658;29;20694;-85
2023/10/02 00:35:14;;;;;;;3.97;3.17;;;;;;;-146.25;100.00;57403.91;4951150;29;20546;-85
2023/10/02 00:37:47;;;;;;;4.23;2.90;;;;;;;-146.25;100.00;57403.91;4951874;29;20238;-85
2023/10/02 00:40:20;;;;;;;5.87;3.20;;;;;;;-146.25;100.00;57403.91;4951150;29;20239;-85
2023/10/02 00:42:49;;;;;;;5.70;3.33;;;;;;;-146.25;100.00;57403.91;4951378;29;20198;-86
2023/10/02 00:45:18;;;;;;;3.13;2.90;;;;;;;-146.25;100.00;57403.91;4951660;29;20261;-85
2023/10/02 00:47:48;;;;;;;3.97;2.70;;;;;;;-146.25;100.00;57403.91;4950905;29;20278;-85
2023/10/02 00:50:20;;;;;;;3.23;2.97;;;;;;;-146.25;100.00;57403.91;4934631;29;20250;-85
2023/10/02 00:52:58;;;;;;;6.70;3.60;;;;;;;-146.25;100.00;57403.91;4950588;29;20235;-86
2023/10/02 00:55:30;;;;;;;3.40;2.90;;;;;;;-146.25;100.00;57403.91;4951841;29;20202;-86
2023/10/02 00:57:58;;;;;;;3.53;3.23;;;;;;;-146.25;100.00;57403.91;4951421;28;20314;-86
2023/10/02 01:00:36;;;;;;;3.80;2.83;;;;;;;-146.25;100.00;57403.91;4950733;29;20337;-86
2023/10/02 01:03:09;;;;;;;3.03;2.73;;;;;;;-146.25;100.00;57403.91;4951187;28;20191;-85
2023/10/02 01:05:47;;;;;;;3.47;3.20;;;;;;;-146.25;100.00;57403.91;4951620;29;20767;-85
2023/10/02 01:11:09;;;;;;;6.50;2.80;;;;;;;-146.25;100.00;57403.91;4951063;29;20464;-85
2023/10/02 01:13:38;;;;;;;3.33;3.10;;;;;;;-146.25;100.00;57403.91;4950778;29;20233;-86
2023/10/02 01:16:08;;;;;;;3.43;3.13;;;;;;;-146.25;100.00;57403.91;4950793;29;20271;-87
2023/10/02 01:18:36;;;;;;;3.03;2.73;;;;;;;-146.25;100.00;57403.91;4951921;28;20202;-86
2023/10/02 01:21:10;;;;;;;4.50;2.57;;;;;;;-146.25;100.00;57403.91;4954757;29;20230;-85
2023/10/02 01:24:06;;;;;;;3.73;2.70;;;;;;;-146.25;100.00;57403.91;4954851;29;20213;-85
2023/10/02 01:26:34;;;;;;;3.03;2.60;;;;;;;-146.25;100.00;57403.91;4953935;29;20254;-85
2023/10/02 01:29:04;;;;;;;4.03;3.53;;;;;;;-146.25;100.00;57403.91;4954002;28;20676;-84
2023/10/02 01:31:41;;;;;;;2.67;2.40;;;;;;;-146.25;100.00;57403.91;4953975;29;20209;-86
2023/10/02 01:34:10;;;;;;;3.30;3.10;;;;;;;-146.25;100.00;57403.91;4954299;29;20648;-86
2023/10/02 01:36:41;;;;;;;4.60;2.80;;;;;;;-146.25;100.00;57403.91;4953811;29;20317;-86
2023/10/02 01:39:14;;;;;;;3.17;2.87;;;;;;;-146.25;100.00;57403.91;4954499;29;20579;-85
2023/10/02 01:41:48;;;;;;;3.27;2.77;;;;;;;-146.25;100.00;57403.91;4953509;29;20692;-86
2023/10/02 01:44:20;;;;;;;2.40;2.23;;;;;;;-146.25;100.00;57403.91;4953781;29;20230;-87
2023/10/02 01:46:50;;;;;;;4.47;2.90;;;;;;;-146.25;100.00;57403.91;4953002;29;20217;-87
2023/10/02 01:49:25;;;;;;;2.83;2.70;;;;;;;-146.25;100.00;57403.91;4957367;29;20674;-85
2023/10/02 01:51:55;;;;;;;2.77;2.53;;;;;;;-146.25;100.00;57403.91;4957474;29;20183;-86
2023/10/02 01:54:27;;;;;;;2.90;2.70;;;;;;;-146.25;100.00;57403.91;4955313;29;20230;-85
2023/10/02 01:56:56;;;;;;;2.97;2.57;;;;;;;-146.25;100.00;57403.91;4955046;29;20198;-86
2023/10/02 01:59:24;;;;;;;5.80;2.97;;;;;;;-146.25;100.00;57403.91;4955056;28;20577;-86
2023/10/02 02:01:54;;;;;;;2.23;2.03;;;;;;;-146.25;100.00;57403.91;4954805;29;20242;-86
2023/10/02 02:04:22;;;;;;;2.90;2.70;;;;;;;-146.25;100.00;57403.91;4956295;28;20242;-86
2023/10/02 02:06:55;;;;;;;2.67;2.47;;;;;;;-146.25;100.00;57403.91;4955440;29;20294;-86
2023/10/02 02:09:25;;;;;;;3.40;2.50;;;;;;;-146.25;100.00;57403.91;4954740;29;20211;-85
2023/10/02 02:12:06;;;;;;;2.90;2.70;;;;;;;-146.25;100.00;57403.91;4954465;29;20199;-86
2023/10/02 02:14:34;;;;;;;3.00;2.77;;;;;;;-146.25;100.00;57403.91;4953974;29;20330;-87
2023/10/02 02:17:05;;;;;;;4.03;2.73;;;;;;;-146.25;100.00;57403.91;4953442;29;20277;-86
2023/10/02 02:19:33;;;;;;;2.43;2.20;;;;;;;-146.25;100.00;57403.91;4954554;29;20206;-86
2023/10/02 02:22:00;;;;;;;2.17;1.90;;;;;;;-146.25;100.00;57403.91;4953547;29;20249;-86
2023/10/02 02:24:34;;;;;;;3.53;2.10;;;;;;;-146.25;100.00;57403.91;4953907;29;20279;-86
2023/10/02 02:27:04;;;;;;;2.80;2.60;;;;;;;-146.25;100.00;57403.91;4954080;29;20242;-86
2023/10/02 02:29:33;;;;;;;2.30;2.10;;;;;;;-146.25;100.00;57403.91;4952947;28;20210;-86
2023/10/02 02:32:00;;;;;;;2.60;2.40;;;;;;;-146.25;100.00;57403.91;4952928;29;20206;-86
2023/10/02 02:34:27;;;;;;;2.40;2.23;;;;;;;-146.25;100.00;57403.91;4953203;29;20290;-85
2023/10/02 02:36:57;;;;;;;2.17;2.07;;;;;;;-146.25;100.00;57403.91;4952418;28;20601;-86
2023/10/02 02:39:25;;;;;;;2.87;2.13;;;;;;;-146.25;100.00;57403.91;4940831;29;20238;-87
2023/10/02 02:42:12;;;;;;;2.43;2.20;;;;;;;-146.25;100.00;57403.91;4960288;28;20715;-86
2023/10/02 02:44:47;;;;;;;2.33;2.23;;;;;;;-146.25;100.00;57403.91;4952453;28;20214;-84
2023/10/02 02:47:15;;;;;;;2.10;1.93;;;;;;;-146.25;100.00;57403.91;4953065;29;20727;-86
2023/10/02 02:49:50;;;;;;;2.23;2.10;;;;;;;-146.25;100.00;57403.91;4954092;29;20290;-87
2023/10/02 02:52:19;;;;;;;4.40;2.20;;;;;;;-146.25;100.00;57403.91;4952705;29;20295;-86
2023/10/02 02:54:47;;;;;;;1.67;1.57;;;;;;;-146.25;100.00;57403.91;4953229;29;20667;-84
2023/10/02 02:57:18;;;;;;;3.97;2.50;;;;;;;-146.25;100.00;57403.91;4953197;29;20245;-85
2023/10/02 02:59:47;;;;;;;2.93;1.93;;;;;;;-146.25;100.00;57403.91;4953220;29;20231;-87
2023/10/02 03:02:21;;;;;;;2.37;2.17;;;;;;;-146.25;100.00;57403.91;4952577;29;20269;-86
2023/10/02 03:04:51;;;;;;;3.30;1.53;;;;;;;-146.25;100.00;57403.91;4955291;28;20280;-85
2023/10/02 03:07:29;;;;;;;1.93;1.83;;;;;;;-146.25;100.00;57403.91;4954132;29;20202;-85
2023/10/02 03:09:59;;;;;;;2.33;2.00;;;;;;;-146.25;100.00;57403.91;4954973;29;20213;-85
2023/10/02 03:12:28;;;;;;;2.03;1.93;;;;;;;-146.25;100.00;57403.91;4967111;29;20215;-85
2023/10/02 03:14:56;;;;;;;2.13;1.90;;;;;;;-146.25;100.00;57403.91;4967619;29;20230;-86
2023/10/02 03:17:29;;;;;;;3.33;1.93;;;;;;;-146.25;100.00;57403.91;4960129;29;20217;-83
2023/10/02 03:20:00;;;;;;;1.70;1.60;;;;;;;-146.25;100.00;57403.91;4957137;29;20230;-84
2023/10/02 03:22:33;;;;;;;3.20;2.00;;;;;;;-146.25;100.00;57403.91;4954866;29;20227;-84
2023/10/02 03:27:44;;;;;;;2.20;1.77;;;;;;;-146.25;100.00;57403.91;4952973;29;20199;-84
2023/10/02 03:30:35;;;;;;;2.33;1.90;;;;;;;-146.25;100.00;57403.91;4955156;29;20646;-84
2023/10/02 03:33:03;;;;;;;6.73;1.80;;;;;;;-146.25;100.00;57403.91;4954789;29;20209;-85
2023/10/02 03:35:38;;;;;;;3.10;2.33;;;;;;;-146.25;100.00;57403.91;4953831;29;20544;-87
2023/10/02 03:38:05;;;;;;;2.50;2.03;;;;;;;-146.25;100.00;57403.91;4957247;29;20206;-86
2023/10/02 03:40:34;;;;;;;2.20;2.00;;;;;;;-146.25;100.00;57403.91;4954703;29;20317;-87
2023/10/02 03:43:18;;;;;;;4.80;1.63;;;;;;;-146.25;100.00;57403.91;4952284;28;20254;-85
2023/10/02 03:45:51;;;;;;;1.80;1.70;;;;;;;-146.25;100.00;57403.91;4954480;29;20196;-85
2023/10/02 03:48:18;;;;;;;4.13;2.00;;;;;;;-146.25;100.00;57403.91;4952480;29;20727;-86
2023/10/02 03:50:46;;;;;;;3.30;2.47;;;;;;;-146.25;100.00;57403.91;4952196;29;20202;-88
2023/10/02 03:53:28;;;;;;;2.37;1.70;;;;;;;-146.25;100.00;57403.91;4960813;29;20214;-87
2023/10/02 03:56:31;;;;;;;6.63;1.83;;;;;;;-146.25;100.00;57403.91;4961958;29;20226;-85
2023/10/02 03:58:51;;;;;;;1.83;1.70;;;;;;;-146.25;100.00;57403.91;4953064;29;20326;-86
2023/10/02 04:01:28;;;;;;;2.10;1.73;;;;;;;-146.25;100.00;57403.91;4951606;29;20214;-87
2023/10/02 04:04:19;;;;;;;3.00;1.90;;;;;;;-146.25;100.00;57403.91;4952909;28;20257;-86
2023/10/02 04:06:47;;;;;;;3.57;2.57;;;;;;;-146.25;100.00;57403.91;4952792;29;20192;-87
2023/10/02 04:09:21;;;;;;;3.47;2.07;;;;;;;-146.25;100.00;57403.91;4952015;29;20233;-86
2023/10/02 04:11:53;;;;;;;2.27;1.70;;;;;;;-146.25;100.00;57403.91;4952245;29;20191;-87
2023/10/02 04:14:33;;;;;;;1.50;1.40;;;;;;;-146.25;100.00;57403.91;4951672;29;20246;-87
2023/10/02 04:17:13;;;;;;;3.10;2.17;;;;;;;-146.25;100.00;57403.91;4951231;29;20213;-85
2023/10/02 04:19:48;;;;;;;3.03;1.57;;;;;;;-146.25;100.00;57403.91;4952416;29;20206;-85
2023/10/02 04:22:22;;;;;;;1.80;1.70;;;;;;;-146.25;100.00;57403.91;4951263;29;20285;-87
2023/10/02 04:24:54;;;;;;;2.87;1.73;;;;;;;-146.25;100.00;57403.91;4951795;29;20206;-87
2023/10/02 04:30:24;;;;;;;2.97;2.30;;;;;;;-146.25;100.00;57403.91;4948697;29;20277;-87
2023/10/02 04:32:51;;;;;;;3.40;1.87;;;;;;;-146.25;100.00;57403.91;4951407;29;20217;-86
2023/10/02 04:38:10;;;;;;;2.70;2.00;;;;;;;-146.25;100.00;57403.91;4950797;29;20686;-87
2023/10/02 04:40:49;;;;;;;3.73;2.23;;;;;;;-146.25;100.00;57403.91;4951029;29;20314;-86
2023/10/02 04:43:23;;;;;;;5.23;1.70;;;;;;;-146.25;100.00;57403.91;4950338;29;20265;-86
2023/10/02 04:46:01;;;;;;;2.63;2.30;;;;;;;-146.25;100.00;57403.91;4951008;29;20677;-86
2023/10/02 04:48:38;;;;;;;2.67;1.57;;;;;;;-146.25;100.00;57403.91;4950789;29;20483;-86
2023/10/02 04:51:08;;;;;;;6.03;2.13;;;;;;;-146.25;100.00;57403.91;4950749;29;20213;-87
2023/10/02 04:53:36;;;;;;;1.70;1.60;;;;;;;-146.25;100.00;57403.91;4952000;28;20751;-88
2023/10/02 04:56:21;;;;;;;7.93;1.90;;;;;;;-146.25;100.00;57403.91;4955322;29;20212;-87
2023/10/02 04:58:57;;;;;;;6.30;1.60;;;;;;;-146.25;100.00;57403.91;4953727;29;20337;-86
2023/10/02 05:01:41;;;;;;;2.33;1.70;;;;;;;-146.25;100.00;57403.91;4955032;29;20253;-87
2023/10/02 05:04:32;;;;;;;4.33;2.00;;;;;;;-146.25;100.00;57403.91;4954138;28;20261;-85
2023/10/02 05:07:29;;;;;;;1.67;1.40;;;;;;;-146.25;100.00;57403.91;4955002;29;20210;-86
2023/10/02 05:09:56;;;;;;;5.77;1.93;;;;;;;-146.25;100.00;57403.91;4929445;29;20726;-87
2023/10/02 05:12:28;;;;;;;3.97;2.03;;;;;;;-146.25;100.00;57403.91;4957022;29;20260;-85
2023/10/02 05:15:07;;;;;;;1.73;1.43;;;;;;;-146.25;100.00;57403.91;4958644;29;20238;-86
2023/10/02 05:17:46;;;;;;;3.67;1.20;;;;;;;-146.25;100.00;57403.91;4955294;29;20227;-87
2023/10/02 05:20:17;;;;;;;2.37;1.60;;;;;;;-146.25;100.00;57403.91;4953200;29;20226;-87
2023/10/02 05:22:48;;;;;;;2.43;1.50;;;;;;;-146.25;100.00;57403.91;4953892;29;20240;-86
2023/10/02 05:25:23;;;;;;;2.60;2.22;;;;;;;-146.25;100.00;57403.91;4954776;29;20207;-86
2023/10/02 05:27:55;;;;;;;1.88;1.77;;;;;;;-146.25;100.00;57403.91;4955272;29;20198;-86
2023/10/02 05:30:23;;;;;;;9.60;2.35;;;;;;;-146.25;100.00;57403.91;4957280;29;20292;-86
2023/10/02 05:32:56;;;;;;;2.88;1.70;;;;;;;-146.25;100.00;57403.91;4956863;29;20253;-85
2023/10/02 05:35:24;;;;;;;2.60;1.70;;;;;;;-146.25;100.00;57403.91;4955759;29;20216;-86
2023/10/02 05:37:54;;;;;;;1.88;1.73;;;;;;;-146.25;100.00;57403.91;4957019;29;20669;-85
2023/10/02 05:40:42;;;;;;;4.70;1.88;;;;;;;-146.25;100.00;57403.91;4954519;29;20233;-85
2023/10/02 05:43:17;;;;;;;2.88;1.60;;;;;;;-146.25;100.00;57403.91;4955675;29;20206;-87
2023/10/02 05:45:53;;;;;;;2.05;1.63;;;;;;;-146.25;100.00;57403.91;4955874;29;20229;-87
2023/10/02 05:48:31;;;;;;;1.65;1.55;;;;;;;-146.25;100.00;57403.91;4950729;28;20297;-86
2023/10/02 05:50:59;;;;;;;5.68;1.75;;;;;;;-146.25;100.00;57403.91;4954164;29;20646;-85
2023/10/02 05:53:37;;;;;;;2.33;1.88;;;;;;;-146.25;100.00;57403.91;4953204;29;20695;-87
2023/10/02 05:56:12;;;;;;;2.88;1.70;;;;;;;-146.25;100.00;57403.91;4943001;29;20214;-85
2023/10/02 05:58:41;;;;;;;2.60;1.30;;;;;;;-146.25;100.00;57403.91;4953624;28;20209;-85
2023/10/02 06:01:18;;;;;;;3.10;1.85;;;;;;;-146.25;100.00;57403.91;4952871;29;20616;-86
2023/10/02 06:03:56;;;;;;;1.67;1.58;;;;;;;-146.25;100.00;57403.91;4959743;28;20254;-87
2023/10/02 06:06:27;;;;;;;3.67;1.90;;;;;;;-146.25;100.00;57403.91;4960142;28;20250;-88
2023/10/02 06:09:03;;;;;;;4.55;1.52;;;;;;;-146.25;100.00;57403.91;4959418;28;20224;-86
2023/10/02 06:11:33;;;;;;;2.08;1.70;;;;;;;-146.25;100.00;57403.91;4961487;28;20213;-87
2023/10/02 06:14:13;;;;;;;2.40;1.80;;;;;;;-146.25;100.00;57403.91;4965685;28;20593;-89
2023/10/02 06:16:42;;;;;;;2.55;2.10;;;;;;;-146.25;100.00;57403.91;4965483;28;20203;-88
2023/10/02 06:19:15;;;;;;;2.65;2.13;;;;;;;-146.25;100.00;57403.91;4965518;28;20214;-88
2023/10/02 06:22:04;;;;;;;2.25;1.90;;;;;;;-146.25;100.00;57403.91;4964886;28;20282;-87
2023/10/02 06:24:32;;;;;;;4.47;2.20;;;;;;;-146.25;100.00;57403.91;4962359;28;20188;-86
2023/10/02 06:27:13;;;;;;;1.80;1.70;;;;;;;-146.25;100.00;57403.91;4960843;28;20261;-87
2023/10/02 06:29:47;;;;;;;3.80;1.52;;;;;;;-146.25;100.00;57403.91;4971790;28;20206;-87
2023/10/02 06:32:23;;;;;;;2.47;1.42;;;;;;;-146.25;100.00;57403.91;4959799;28;20745;-88
2023/10/02 06:35:00;;;;;;;1.70;1.60;;;;;;;-146.25;100.00;57403.91;4959086;28;20292;-88
2023/10/02 06:37:35;;;;;;;2.13;1.83;;;;;;;-146.25;100.00;57403.91;4964189;28;20230;-89
2023/10/02 06:40:33;;;;;;;2.38;2.17;;;;;;;-146.25;100.00;57403.91;4964432;28;20286;-90
2023/10/02 06:43:02;;;;;;;1.92;1.83;;;;;;;-146.25;100.00;57403.91;4953604;28;20819;-89
2023/10/02 06:45:32;;;;;;;2.72;1.52;;;;;;;-146.25;100.00;57403.91;4961527;28;20281;-88
2023/10/02 06:48:03;;;;;;;2.30;1.83;;;;;;;-146.25;100.00;57403.91;4968289;28;20209;-87
2023/10/02 06:50:35;;;;;;;2.17;1.60;;;;;;;-146.25;100.00;57403.91;4963300;28;20202;-87
2023/10/02 06:53:06;;;;;;;2.20;1.95;;;;;;;-146.25;100.00;57403.91;4961561;28;20195;-88
2023/10/02 06:55:37;;;;;;;2.25;1.60;;;;;;;-146.25;100.00;57403.91;4957737;28;20202;-87
2023/10/02 06:58:07;;;;;;;4.85;2.45;;;;;;;-146.25;100.00;57403.91;4961026;28;20207;-89
2023/10/02 07:00:54;;;;;;;1.70;1.60;;;;;;;-146.25;100.00;57403.91;4960645;28;20195;-89
2023/10/02 07:03:24;;;;;;;1.95;1.63;;;;;;;-146.25;100.00;57403.91;4951929;29;20260;-88
2023/10/02 07:05:59;;;;;;;2.80;2.00;;;;;;;-146.25;100.00;57403.91;4952754;29;20207;-88
2023/10/02 07:08:30;;;;;;;2.40;2.20;;;;;;;-146.25;100.00;57403.91;4953155;29;20194;-87
2023/10/02 07:11:01;;;;;;;3.60;2.10;;;;;;;-146.25;100.00;57403.91;4955086;29;20710;-87
2023/10/02 07:13:28;;;;;;;1.90;1.80;;;;;;;-146.25;100.00;57403.91;4969893;29;20206;-89
2023/10/02 07:15:59;;;;;;;2.58;2.38;;;;;;;-146.25;100.00;57403.91;4964185;28;20253;-90
2023/10/02 07:18:36;;;;;;;2.45;2.15;;;;;;;-146.25;100.00;57403.91;4952705;29;20211;-88
2023/10/02 07:21:08;;;;;;;2.95;1.92;;;;;;;-146.25;100.00;57403.91;4954000;29;20233;-87
2023/10/02 07:23:37;;;;;;;3.72;2.08;;;;;;;-146.25;100.00;57403.91;4953648;29;20219;-87
2023/10/02 07:26:49;;;;;;;5.13;2.80;;;;;;;-146.25;100.00;57403.91;4952939;29;20207;-87
2023/10/02 07:29:17;;;;;;;3.30;3.00;;;;;;;-146.25;100.00;57403.91;4954260;29;20202;-86
2023/10/02 07:31:50;;;;;;;3.30;2.20;;;;;;;-146.25;100.00;57403.91;4962212;29;20203;-86
2023/10/02 07:34:26;;;;;;;3.90;2.92;;;;;;;-146.25;100.00;57403.91;4964121;29;20225;-87
2023/10/02 07:37:05;;;;;;;4.68;2.13;;;;;;;-146.25;100.00;57403.91;4962172;29;20206;-86
2023/10/02 07:39:56;;;;;;;3.20;2.08;;;;;;;-146.25;100.00;57403.91;4968781;29;20202;-84
2023/10/02 07:42:40;;;;;;;2.15;1.85;;;;;;;-146.25;100.00;57403.91;4968030;29;20238;-86
2023/10/02 07:45:24;;;;;;;3.40;2.20;;;;;;;-146.25;100.00;57403.91;4956794;29;20213;-85
2023/10/02 07:48:11;;;;;;;4.10;2.08;;;;;;;-146.25;100.00;57403.91;4955656;29;20202;-87
2023/10/02 07:50:41;;;;;;;1.70;1.60;;;;;;;-146.25;100.00;57403.91;4956158;29;20264;-87
2023/10/02 07:53:12;;;;;;;2.15;1.95;;;;;;;-146.25;100.00;57403.91;4955120;29;20213;-87
2023/10/02 07:55:42;;;;;;;2.28;1.85;;;;;;;-146.25;100.00;57403.91;4952161;29;20203;-87
2023/10/02 07:58:13;;;;;;;2.22;1.75;;;;;;;-146.25;100.00;57403.91;4952968;29;20282;-87
2023/10/02 08:00:42;;;;;;;2.22;2.05;;;;;;;-146.25;100.00;57403.91;4952323;29;20206;-84
2023/10/02 08:06:33;;;;;;;4.10;2.10;;;;;;;-146.25;100.00;57403.91;4951125;29;20345;-89
2023/10/02 08:11:52;;;;;;;4.15;2.22;;;;;;;-146.25;100.00;57403.91;4951556;29;20189;-85
2023/10/02 08:17:29;;;;;;;5.20;2.30;;;;;;;-146.25;100.00;57403.91;4952552;29;20214;-89
2023/10/02 08:20:19;;;;;;;3.17;2.00;;;;;;;-146.25;100.00;57403.91;4951765;29;20614;-89
2023/10/02 08:22:55;;;;;;;2.75;2.05;;;;;;;-146.25;100.00;57403.91;4953302;29;20316;-89
2023/10/02 08:25:33;;;;;;;3.92;2.35;;;;;;;-146.25;100.00;57403.91;4951962;29;20619;-90
2023/10/02 08:28:23;;;;;;;2.88;2.00;;;;;;;-146.25;100.00;57403.91;4954010;29;20206;-89
2023/10/02 08:30:59;;;;;;;4.25;1.98;;;;;;;-146.25;100.00;57403.91;4955257;29;20211;-88
2023/10/02 08:33:31;;;;;;;5.00;2.03;;;;;;;-146.25;100.00;57403.91;4960625;29;20648;-87
2023/10/02 08:36:15;;;;;;;2.15;1.88;;;;;;;-146.25;100.00;57403.91;4954665;29;20206;-89
2023/10/02 08:38:51;;;;;;;2.30;2.10;;;;;;;-146.25;100.00;57403.91;4952456;29;20213;-88
2023/10/02 08:41:25;;;;;;;4.53;2.03;;;;;;;-146.25;100.00;57403.91;4953063;29;20214;-89
2023/10/02 08:44:00;;;;;;;2.20;2.10;;;;;;;-146.25;100.00;57403.91;4951286;29;20321;-89
2023/10/02 08:46:35;;;;;;;4.38;3.80;;;;;;;-146.25;100.00;57403.91;4951930;29;20203;-86
2023/10/02 08:49:12;;;;;;;9.02;2.92;;;;;;;-146.25;100.00;57403.91;4951239;29;20664;-88
2023/10/02 08:51:48;;;;;;;2.67;2.47;;;;;;;-146.25;100.00;57403.91;4951977;29;20214;-88
2023/10/02 08:54:17;;;;;;;2.33;2.22;;;;;;;-146.25;100.00;57403.91;4949653;29;20211;-89
2023/10/02 08:57:06;;;;;;;1.95;1.70;;;;;;;-146.25;100.00;57403.91;4951747;29;20226;-88
2023/10/02 08:59:40;;;;;;;2.20;2.10;;;;;;;-146.25;100.00;57403.91;4962637;29;20262;-89
2023/10/02 09:02:16;;;;;;;2.90;2.53;;;;;;;-146.25;100.00;57403.91;4955647;29;20309;-88
2023/10/02 09:05:09;;;;;;;3.35;2.88;;;;;;;-146.25;100.00;57403.91;4953027;29;20294;-89
2023/10/02 09:08:00;;;;;;;4.05;3.00;;;;;;;-146.25;100.00;57403.91;4961791;29;20206;-87
2023/10/02 09:10:41;;;;;;;4.20;2.53;;;;;;;-146.25;100.00;57403.91;4961260;29;20222;-87
2023/10/02 09:13:24;;;;;;;2.10;1.92;;;;;;;-146.25;100.00;57403.91;4956795;29;20293;-89
2023/10/02 09:16:01;;;;;;;3.17;2.10;;;;;;;-146.25;100.00;57403.91;4960939;28;20293;-88
2023/10/02 09:19:07;;;;;;;2.50;2.30;;;;;;;-146.25;100.00;57403.91;4953633;29;20213;-88
2023/10/02 09:21:39;;;;;;;7.35;2.50;;;;;;;-146.25;100.00;57403.91;4953252;29;20203;-89
2023/10/02 09:24:23;;;;;;;3.63;2.85;;;;;;;-146.25;100.00;57403.91;4952363;29;20717;-89
2023/10/02 09:26:57;;;;;;;4.10;2.85;;;;;;;-146.25;100.00;57403.91;4953462;29;20250;-86
2023/10/02 09:29:39;;;;;;;5.43;2.70;;;;;;;-146.25;100.00;57403.91;4952515;29;20264;-88
2023/10/02 09:32:21;;;;;;;3.20;2.60;;;;;;;-146.25;100.00;57403.91;4953250;29;20231;-88
2023/10/02 09:37:45;;;;;;;2.08;1.98;;;;;;;-146.25;100.00;57403.91;4949324;29;20203;-89
2023/10/02 09:40:54;;;;;;;2.65;2.10;;;;;;;-146.25;100.00;57403.91;4952186;28;20206;-88
2023/10/02 09:43:32;;;;;;;2.28;2.08;;;;;;;-146.25;100.00;57403.91;4956230;29;20297;-88
2023/10/02 09:46:18;;;;;;;2.10;2.00;;;;;;;-146.25;100.00;57403.91;4955648;29;20214;-88
2023/10/02 09:49:01;;;;;;;3.10;2.08;;;;;;;-146.25;100.00;57403.91;4956622;29;20691;-88
2023/10/02 09:52:15;;;;;;;2.50;2.28;;;;;;;-146.25;100.00;57403.91;4958724;29;20672;-87
2023/10/02 09:55:04;;;;;;;3.08;2.45;;;;;;;-146.25;100.00;57403.91;4959038;29;20267;-89
2023/10/02 09:57:48;;;;;;;4.18;2.70;;;;;;;-146.25;100.00;57403.91;4958599;29;20514;-89
2023/10/02 10:00:42;;;;;;;4.60;2.25;;;;;;;-146.25;100.00;57403.91;4964081;29;20218;-88
2023/10/02 10:03:33;;;;;;;2.28;2.05;;;;;;;-146.25;100.00;57403.91;4958514;29;20701;-86
2023/10/02 10:06:36;;;;;;;3.50;2.50;;;;;;;-146.25;100.00;57403.91;4954978;29;20668;-89
2023/10/02 10:09:50;;;;;;;3.85;2.40;;;;;;;-146.25;100.00;57403.91;4956081;29;20207;-89
2023/10/02 10:12:50;;;;;;;3.95;2.53;;;;;;;-146.25;100.00;57403.91;4954822;29;20771;-86
2023/10/02 10:15:25;;;;;;;2.65;2.45;;;;;;;-146.25;100.00;57403.91;4955295;28;20226;-89
2023/10/02 10:18:03;;;;;;;4.07;2.10;;;;;;;-146.25;100.00;57403.91;4956441;29;20199;-88
2023/10/02 10:21:17;;;;;;;3.17;2.50;;;;;;;-146.25;100.00;57403.91;4955584;29;20266;-89
2023/10/02 10:23:45;;;;;;;3.60;2.17;;;;;;;-146.25;100.00;57403.91;4955798;29;20222;-88
2023/10/02 10:26:56;;;;;;;3.13;2.42;;;;;;;-146.25;100.00;57403.91;4957554;29;20194;-89
2023/10/02 10:30:09;;;;;;;3.28;2.45;;;;;;;-146.25;100.00;57403.91;4959681;29;20210;-90
2023/10/02 10:32:41;;;;;;;4.50;2.28;;;;;;;-146.25;100.00;57403.91;4954641;29;20226;-88
2023/10/02 10:35:29;;;;;;;3.90;2.50;;;;;;;-146.25;100.00;57403.91;4955969;29;20199;-88
2023/10/02 10:38:03;;;;;;;3.75;2.67;;;;;;;-146.25;100.00;57403.91;4955492;29;20195;-89
2023/10/02 10:40:50;;;;;;;2.55;2.35;;;;;;;-146.25;100.00;57403.91;4955849;29;20210;-89
2023/10/02 10:43:18;;;;;;;2.50;2.17;;;;;;;-146.25;100.00;57403.91;4958152;29;20234;-86
2023/10/02 10:45:52;;;;;;;2.75;2.30;;;;;;;-146.25;100.00;57403.91;4973642;29;20271;-89
2023/10/02 10:48:24;;;;;;;4.57;2.13;;;;;;;-146.25;100.00;57403.91;4963962;29;20620;-90
2023/10/02 10:51:27;;;;;;;3.47;2.50;;;;;;;-146.25;100.00;57403.91;4953695;28;20692;-87
2023/10/02 10:54:13;;;;;;;2.50;2.30;;;;;;;-146.25;100.00;57403.91;4955007;29;20665;-89
2023/10/02 10:56:51;;;;;;;5.00;3.15;;;;;;;-146.25;100.00;57403.91;4943261;29;20215;-89
2023/10/02 10:59:40;;;;;;;5.30;2.72;;;;;;;-146.25;100.00;57403.91;4946689;29;20674;-89
2023/10/02 11:02:16;;;;;;;2.95;2.25;;;;;;;-146.25;100.00;57403.91;4944323;29;20265;-87
2023/10/02 11:04:53;;;;;;;3.38;2.40;;;;;;;-146.25;100.00;57403.91;4953385;28;20668;-89
2023/10/02 11:07:27;;;;;;;2.53;2.33;;;;;;;-146.25;100.00;57403.91;4953091;29;20233;-89
2023/10/02 11:10:26;;;;;;;7.95;2.72;;;;;;;-146.25;100.00;57403.91;4952931;29;20226;-89
2023/10/02 11:13:08;;;;;;;2.60;2.50;;;;;;;-146.25;100.00;57403.91;4955153;29;20711;-91
2023/10/02 11:16:10;;;;;;;2.78;2.15;;;;;;;-146.25;100.00;57403.91;4955762;28;20218;-89
2023/10/02 11:19:12;;;;;;;;;;;;;;;;;;;;;
2023/10/02 11:22:14;;;;;;;2.95;2.47;;;;;;;-146.25;100.00;57403.91;4951812;29;20236;-88
2023/10/02 11:25:24;;;;;;;3.38;2.63;;;;;;;-146.25;100.00;57403.91;4952316;29;20242;-89
2023/10/02 11:27:59;;;;;;;2.45;2.25;;;;;;;-146.25;100.00;57403.91;4949945;29;20617;-87
2023/10/02 11:30:32;;;;;;;2.25;2.03;;;;;;;-146.25;100.00;57403.91;4952216;29;20641;-88
2023/10/02 11:33:11;;;;;;;4.00;2.10;;;;;;;-146.25;100.00;57403.91;4952156;29;20589;-88
2023/10/02 11:35:41;;;;;;;3.10;2.67;;;;;;;-146.25;100.00;57403.91;4952990;29;20573;-88
2023/10/02 11:38:18;;;;;;;4.03;2.55;;;;;;;-146.25;100.00;57403.91;4954330;29;20665;-87
2023/10/02 11:40:45;;;;;;;2.63;2.40;;;;;;;-146.25;100.00;57403.91;4955259;29;20202;-89
2023/10/02 11:43:16;;;;;;;4.97;2.45;;;;;;;-146.25;100.00;57403.91;4959248;29;20233;-89
2023/10/02 11:45:49;;;;;;;3.28;2.60;;;;;;;-146.25;100.00;57403.91;4957973;29;20199;-91
2023/10/02 11:51:08;;;;;;;2.80;2.60;;;;;;;-146.25;100.00;57403.91;4953936;29;20215;-91
2023/10/02 11:53:43;;;;;;;2.60;2.40;;;;;;;-146.25;100.00;57403.91;4952481;29;20671;-89
2023/10/02 11:56:37;;;;;;;3.53;2.70;;;;;;;-146.25;100.00;57403.91;4952613;29;20214;-88
2023/10/02 11:59:32;;;;;;;3.67;2.38;;;;;;;-146.25;100.00;57403.91;4952596;29;20568;-89
2023/10/02 12:02:00;;;;;;;7.75;2.60;;;;;;;-146.25;100.00;57403.91;4953240;29;20226;-88
2023/10/02 12:04:38;;;;;;;4.32;2.90;;;;;;;-146.25;100.00;57403.91;4935277;29;20238;-90
2023/10/02 12:07:09;;;;;;;2.40;2.30;;;;;;;-146.25;100.00;57403.91;4952535;29;20248;-87
2023/10/02 12:09:38;;;;;;;2.58;2.38;;;;;;;-146.25;100.00;57403.91;4952308;29;20191;-87
2023/10/02 12:12:07;;;;;;;4.05;2.28;;;;;;;-146.25;100.00;57403.91;4952373;29;20203;-89
2023/10/02 12:14:47;;;;;;;3.65;2.72;;;;;;;-146.25;100.00;57403.91;4954463;28;20226;-87
2023/10/02 12:17:23;;;;;;;6.15;3.85;;;;;;;-146.25;100.00;57403.91;4955472;29;20198;-88
2023/10/02 12:19:56;;;;;;;4.05;2.83;;;;;;;-146.25;100.00;57403.91;4954311;29;20199;-88